createdAt,value
2023-10-22T00:00:22.138Z,16.67
2023-10-22T00:04:06.957Z,15.09
2023-10-22T00:07:10.539Z,15.00
2023-10-22T00:10:13.948Z,16.95
2023-10-22T00:13:17.377Z,17.85
2023-10-22T00:16:20.883Z,16.67
2023-10-22T00:19:24.506Z,15.26
2023-10-22T00:22:27.972Z,14.93
2023-10-22T00:25:34.636Z,16.75
2023-10-22T00:28:38.060Z,17.86
2023-10-22T00:31:41.762Z,17.01
2023-10-22T00:34:45.275Z,15.57
2023-10-22T00:37:48.801Z,15.15
2023-10-22T00:40:52.576Z,16.95
2023-10-22T00:43:56.144Z,17.95
2023-10-22T00:47:00.052Z,16.92
2023-10-22T00:50:04.372Z,15.57
2023-10-22T00:53:08.877Z,14.60
2023-10-22T00:56:13.556Z,15.23
2023-10-22T00:59:17.131Z,17.20
2023-10-22T01:02:21.074Z,17.95
2023-10-22T01:05:25.475Z,16.77
2023-10-22T01:08:29.009Z,15.45
2023-10-22T01:11:32.997Z,15.25
2023-10-22T01:14:36.699Z,17.18
2023-10-22T01:17:40.573Z,18.02
2023-10-22T01:20:44.140Z,16.84
2023-10-22T01:23:47.613Z,15.50
2023-10-22T01:26:51.146Z,15.18
2023-10-22T01:29:54.706Z,17.04
2023-10-22T01:32:58.251Z,18.00
2023-10-22T01:36:02.748Z,16.92
2023-10-22T01:39:10.260Z,15.59
2023-10-22T01:42:13.767Z,15.24
2023-10-22T01:45:17.590Z,17.09
2023-10-22T01:48:21.117Z,18.04
2023-10-22T01:51:25.020Z,16.90
2023-10-22T01:54:28.455Z,15.57
2023-10-22T01:57:33.782Z,15.26
2023-10-22T02:00:37.324Z,17.13
2023-10-22T02:03:45.875Z,18.13
2023-10-22T02:06:49.434Z,17.05
2023-10-22T02:09:54.609Z,15.67
2023-10-22T02:12:58.136Z,15.32
2023-10-22T02:16:01.695Z,17.10
2023-10-22T02:19:05.213Z,18.11
2023-10-22T02:22:10.199Z,17.12
2023-10-22T02:25:13.610Z,15.69
2023-10-22T02:28:17.892Z,15.32
2023-10-22T02:31:21.445Z,17.17
2023-10-22T02:34:25.983Z,18.16
2023-10-22T02:37:29.387Z,17.08
2023-10-22T02:40:35.631Z,15.74
2023-10-22T02:43:39.054Z,15.52
2023-10-22T02:46:42.589Z,17.39
2023-10-22T02:49:46.133Z,18.52
2023-10-22T02:52:49.604Z,17.77
2023-10-22T02:56:01.493Z,16.39
2023-10-22T02:59:05.264Z,15.34
2023-10-22T03:02:08.677Z,15.94
2023-10-22T03:05:12.157Z,17.79
2023-10-22T03:08:15.917Z,18.62
2023-10-22T03:11:20.407Z,17.67
2023-10-22T03:14:23.927Z,16.34
2023-10-22T03:17:27.677Z,16.01
2023-10-22T03:20:33.759Z,17.75
2023-10-22T03:23:41.493Z,18.84
2023-10-22T03:26:46.383Z,17.76
2023-10-22T03:29:49.974Z,16.41
2023-10-22T03:32:56.075Z,16.09
2023-10-22T03:36:00.270Z,17.94
2023-10-22T03:39:06.683Z,18.93
2023-10-22T03:42:10.201Z,17.88
2023-10-22T03:45:13.824Z,16.53
2023-10-22T03:48:17.554Z,16.20
2023-10-22T03:51:21.150Z,17.91
2023-10-22T03:54:24.638Z,18.92
2023-10-22T03:57:28.124Z,17.94
2023-10-22T04:00:31.779Z,16.58
2023-10-22T04:03:35.390Z,16.19
2023-10-22T04:06:38.987Z,17.81
2023-10-22T04:09:42.741Z,19.02
2023-10-22T04:12:47.565Z,19.27
2023-10-22T04:15:52.339Z,17.94
2023-10-22T04:18:55.826Z,16.65
2023-10-22T04:21:59.246Z,16.56
2023-10-22T04:25:03.090Z,18.38
2023-10-22T04:28:07.195Z,19.41
2023-10-22T04:31:10.985Z,18.52
2023-10-22T04:34:14.435Z,17.08
2023-10-22T04:37:20.283Z,16.68
2023-10-22T04:40:26.635Z,18.42
2023-10-22T04:43:30.759Z,19.54
2023-10-22T04:46:34.293Z,19.15
2023-10-22T04:49:37.801Z,17.68
2023-10-22T04:52:41.281Z,16.53
2023-10-22T04:55:53.914Z,16.42
2023-10-22T04:58:57.360Z,18.20
2023-10-22T05:02:01.547Z,19.30
2023-10-22T05:05:06.177Z,19.50
2023-10-22T05:08:10.217Z,18.13
2023-10-22T05:11:17.867Z,16.82
2023-10-22T05:14:21.373Z,16.82
2023-10-22T05:17:25.601Z,18.57
2023-10-22T05:20:30.158Z,19.68
2023-10-22T05:23:34.768Z,19.38
2023-10-22T05:26:38.231Z,17.88
2023-10-22T05:29:41.743Z,16.71
2023-10-22T05:32:45.307Z,17.56
2023-10-22T05:35:48.946Z,19.33
2023-10-22T05:38:52.551Z,19.87
2023-10-22T05:41:56.029Z,18.60
2023-10-22T05:45:01.332Z,17.24
2023-10-22T05:48:05.914Z,17.11
2023-10-22T05:51:09.622Z,18.88
2023-10-22T05:54:13.080Z,19.87
2023-10-22T05:57:16.553Z,19.48
2023-10-22T06:00:20.283Z,18.02
2023-10-22T06:03:24.323Z,16.81
2023-10-22T06:06:28.464Z,16.63
2023-10-22T06:09:31.929Z,18.39
2023-10-22T06:12:35.334Z,19.60
2023-10-22T06:15:40.564Z,19.93
2023-10-22T06:18:44.227Z,18.67
2023-10-22T06:21:47.740Z,17.31
2023-10-22T06:24:51.553Z,17.05
2023-10-22T06:27:56.071Z,18.79
2023-10-22T06:31:06.031Z,19.92
2023-10-22T06:34:09.567Z,20.10
2023-10-22T06:37:13.039Z,18.70
2023-10-22T06:40:16.820Z,17.36
2023-10-22T06:43:20.212Z,17.08
2023-10-22T06:46:23.739Z,18.91
2023-10-22T06:49:27.326Z,20.10
2023-10-22T06:52:30.831Z,20.27
2023-10-22T06:55:34.263Z,18.93
2023-10-22T06:58:37.905Z,17.57
2023-10-22T07:01:41.436Z,17.49
2023-10-22T07:04:45.594Z,19.24
2023-10-22T07:07:49.005Z,20.30
2023-10-22T07:10:52.793Z,20.59
2023-10-22T07:13:56.247Z,19.37
2023-10-22T07:16:59.730Z,18.05
2023-10-22T07:20:04.525Z,17.86
2023-10-22T07:23:08.078Z,19.68
2023-10-22T07:26:11.510Z,20.73
2023-10-22T07:29:15.009Z,20.37
2023-10-22T07:32:18.972Z,18.93
2023-10-22T07:35:22.868Z,18.44
2023-10-22T07:38:30.160Z,19.96
2023-10-22T07:41:33.698Z,20.98
2023-10-22T07:44:37.284Z,20.56
2023-10-22T07:47:41.079Z,19.17
2023-10-22T07:50:44.577Z,18.72
2023-10-22T07:53:48.483Z,20.22
2023-10-22T07:56:51.974Z,20.98
2023-10-22T07:59:56.929Z,19.94
2023-10-22T08:03:00.531Z,18.54
2023-10-22T08:06:06.570Z,18.29
2023-10-22T08:09:10.041Z,20.07
2023-10-22T08:12:14.112Z,20.99
2023-10-22T08:15:17.897Z,20.42
2023-10-22T08:18:21.974Z,18.95
2023-10-22T08:21:25.741Z,18.49
2023-10-22T08:24:29.946Z,20.02
2023-10-22T08:27:34.926Z,21.00
2023-10-22T08:30:38.440Z,20.94
2023-10-22T08:33:41.924Z,19.59
2023-10-22T08:36:45.413Z,18.34
2023-10-22T08:39:48.848Z,18.68
2023-10-22T08:42:56.275Z,20.33
2023-10-22T08:46:00.264Z,21.00
2023-10-22T08:49:09.788Z,20.00
2023-10-22T08:52:13.260Z,18.59
2023-10-22T08:55:16.857Z,18.30
2023-10-22T08:58:21.127Z,19.92
2023-10-22T09:01:27.068Z,20.99
2023-10-22T09:04:33.355Z,21.14
2023-10-22T09:07:54.801Z,19.81
2023-10-22T09:11:13.311Z,18.39
2023-10-22T09:14:22.839Z,18.29
2023-10-22T09:17:26.342Z,20.01
2023-10-22T09:20:30.666Z,20.97
2023-10-22T09:23:34.226Z,20.52
2023-10-22T09:26:46.144Z,19.10
2023-10-22T09:29:50.022Z,18.70
2023-10-22T09:32:53.737Z,20.39
2023-10-22T09:36:02.427Z,21.19
2023-10-22T09:39:07.549Z,20.09
2023-10-22T09:42:17.466Z,18.73
2023-10-22T09:45:25.884Z,18.60
2023-10-22T09:48:35.382Z,20.32
2023-10-22T09:51:40.545Z,21.19
2023-10-22T09:54:45.861Z,20.39
2023-10-22T09:57:49.919Z,19.06
2023-10-22T10:00:54.380Z,18.88
2023-10-22T10:04:00.128Z,20.65
2023-10-22T10:07:04.958Z,21.51
2023-10-22T10:10:11.064Z,20.61
2023-10-22T10:13:15.399Z,19.16
2023-10-22T10:16:23.659Z,18.87
2023-10-22T10:19:27.267Z,20.53
2023-10-22T10:22:40.233Z,21.44
2023-10-22T10:25:43.770Z,21.02
2023-10-22T10:28:51.108Z,19.58
2023-10-22T10:31:56.450Z,19.20
2023-10-22T10:35:02.730Z,20.69
2023-10-22T10:38:22.861Z,21.27
2023-10-22T10:41:51.991Z,20.01
2023-10-22T10:45:09.020Z,18.59
2023-10-22T10:48:41.072Z,18.54
2023-10-22T10:52:00.179Z,20.60
2023-10-22T10:55:09.757Z,21.33
2023-10-22T10:58:14.423Z,20.15
2023-10-22T11:01:18.396Z,18.87
2023-10-22T11:04:21.914Z,18.75
2023-10-22T11:07:27.577Z,20.54
2023-10-22T11:10:31.313Z,21.52
2023-10-22T11:13:35.164Z,20.96
2023-10-22T11:16:51.790Z,19.52
2023-10-22T11:19:55.309Z,19.20
2023-10-22T11:22:58.971Z,20.73
2023-10-22T11:26:02.927Z,21.62
2023-10-22T11:29:06.472Z,21.42
2023-10-22T11:32:13.372Z,20.08
2023-10-22T11:35:17.719Z,19.56
2023-10-22T11:38:23.441Z,20.96
2023-10-22T11:41:26.845Z,21.81
2023-10-22T11:44:32.324Z,21.86
2023-10-22T11:47:35.755Z,20.54
2023-10-22T11:50:40.120Z,19.23
2023-10-22T11:53:44.236Z,18.92
2023-10-22T11:56:48.071Z,20.53
2023-10-22T11:59:51.488Z,21.48
2023-10-22T12:02:55.194Z,21.08
2023-10-22T12:05:58.833Z,19.45
2023-10-22T12:09:04.000Z,18.74
2023-10-22T12:12:08.093Z,20.17
2023-10-22T12:15:13.433Z,20.83
2023-10-22T12:18:16.997Z,19.83
2023-10-22T12:21:20.705Z,18.39
2023-10-22T12:24:27.227Z,18.08
2023-10-22T12:27:32.290Z,19.88
2023-10-22T12:30:35.955Z,20.98
2023-10-22T12:33:39.611Z,20.53
2023-10-22T12:36:43.087Z,18.97
2023-10-22T12:39:46.618Z,18.34
2023-10-22T12:42:50.233Z,19.70
2023-10-22T12:45:53.782Z,20.51
2023-10-22T12:48:57.623Z,20.91
2023-10-22T12:52:01.067Z,19.72
2023-10-22T12:55:06.502Z,18.18
2023-10-22T12:58:10.244Z,17.83
2023-10-22T13:01:15.768Z,19.19
2023-10-22T13:04:19.341Z,20.03
2023-10-22T13:07:22.865Z,20.46
2023-10-22T13:10:26.378Z,20.52
2023-10-22T13:13:29.790Z,19.08
2023-10-22T13:16:33.698Z,17.62
2023-10-22T13:19:37.374Z,17.57
2023-10-22T13:22:41.022Z,19.33
2023-10-22T13:25:44.464Z,20.33
2023-10-22T13:28:48.129Z,20.58
2023-10-22T13:31:51.617Z,19.26
2023-10-22T13:34:55.182Z,17.89
2023-10-22T13:37:58.641Z,18.40
2023-10-22T13:41:03.386Z,19.78
2023-10-22T13:44:07.033Z,20.44
2023-10-22T13:47:11.390Z,20.53
2023-10-22T13:50:15.565Z,19.15
2023-10-22T13:53:19.046Z,17.78
2023-10-22T13:56:22.488Z,18.00
2023-10-22T13:59:26.046Z,19.60
2023-10-22T14:02:32.188Z,20.45
2023-10-22T14:05:35.793Z,20.52
2023-10-22T14:08:40.737Z,19.11
2023-10-22T14:11:44.237Z,17.75
2023-10-22T14:14:49.260Z,18.21
2023-10-22T14:17:52.815Z,19.65
2023-10-22T14:20:56.299Z,20.44
2023-10-22T14:23:59.752Z,20.57
2023-10-22T14:27:13.439Z,19.19
2023-10-22T14:30:18.066Z,17.76
2023-10-22T14:33:22.734Z,17.49
2023-10-22T14:36:26.390Z,19.15
2023-10-22T14:39:30.012Z,20.31
2023-10-22T14:42:33.591Z,20.58
2023-10-22T14:45:37.145Z,19.32
2023-10-22T14:48:41.521Z,17.98
2023-10-22T14:51:45.067Z,17.74
2023-10-22T14:54:48.644Z,19.47
2023-10-22T14:57:52.101Z,20.56
2023-10-22T15:01:00.449Z,20.23
2023-10-22T15:04:04.515Z,18.72
2023-10-22T15:07:09.528Z,18.13
2023-10-22T15:10:13.051Z,19.60
2023-10-22T15:13:16.683Z,20.53
2023-10-22T15:16:20.401Z,19.78
2023-10-22T15:19:24.545Z,18.30
2023-10-22T15:22:28.183Z,17.88
2023-10-22T15:25:32.371Z,19.36
2023-10-22T15:28:36.374Z,20.36
2023-10-22T15:31:40.410Z,20.49
2023-10-22T15:34:44.419Z,19.10
2023-10-22T15:37:48.655Z,17.75
2023-10-22T15:40:53.311Z,17.66
2023-10-22T15:43:58.169Z,19.31
2023-10-22T15:47:02.051Z,20.26
2023-10-22T15:50:07.144Z,20.43
2023-10-22T15:53:11.555Z,19.02
2023-10-22T15:56:15.625Z,17.64
2023-10-22T15:59:19.852Z,17.72
2023-10-22T16:02:23.837Z,19.16
2023-10-22T16:05:27.546Z,19.96
2023-10-22T16:08:31.202Z,20.34
2023-10-22T16:11:35.219Z,19.18
2023-10-22T16:14:40.380Z,17.72
2023-10-22T16:17:44.423Z,17.40
2023-10-22T16:20:48.707Z,18.96
2023-10-22T16:23:52.633Z,19.94
2023-10-22T16:26:56.613Z,20.35
2023-10-22T16:30:00.509Z,19.24
2023-10-22T16:33:04.759Z,17.80
2023-10-22T16:36:12.754Z,17.87
2023-10-22T16:39:20.292Z,19.33
2023-10-22T16:42:25.456Z,20.19
2023-10-22T16:45:29.743Z,19.94
2023-10-22T16:48:34.190Z,18.43
2023-10-22T16:51:38.615Z,17.78
2023-10-22T16:54:43.036Z,19.37
2023-10-22T16:57:47.552Z,20.31
2023-10-22T17:00:51.874Z,19.47
2023-10-22T17:03:56.453Z,17.88
2023-10-22T17:07:00.717Z,17.45
2023-10-22T17:10:09.179Z,19.15
2023-10-22T17:13:14.001Z,19.99
2023-10-22T17:16:18.318Z,19.03
2023-10-22T17:19:23.535Z,17.58
2023-10-22T17:22:27.622Z,17.20
2023-10-22T17:25:31.246Z,18.77
2023-10-22T17:28:35.210Z,19.83
2023-10-22T17:31:39.082Z,19.29
2023-10-22T17:34:42.969Z,17.81
2023-10-22T17:37:46.834Z,17.29
2023-10-22T17:40:55.902Z,18.87
2023-10-22T17:43:59.847Z,19.64
2023-10-22T17:47:04.315Z,18.40
2023-10-22T17:50:09.396Z,17.04
2023-10-22T17:53:26.552Z,16.77
2023-10-22T17:56:31.329Z,18.60
2023-10-22T17:59:35.314Z,19.69
2023-10-22T18:02:39.735Z,19.25
2023-10-22T18:05:43.769Z,17.75
2023-10-22T18:08:49.012Z,17.21
2023-10-22T18:11:53.136Z,18.94
2023-10-22T18:14:57.314Z,19.72
2023-10-22T18:18:01.556Z,18.47
2023-10-22T18:21:06.088Z,17.08
2023-10-22T18:24:13.473Z,16.86
2023-10-22T18:27:17.450Z,18.77
2023-10-22T18:30:21.827Z,19.55
2023-10-22T18:33:26.261Z,18.34
2023-10-22T18:36:30.504Z,16.92
2023-10-22T18:39:34.706Z,16.68
2023-10-22T18:42:45.527Z,18.56
2023-10-22T18:45:52.093Z,19.43
2023-10-22T18:48:57.269Z,18.17
2023-10-22T18:52:01.743Z,16.72
2023-10-22T18:55:08.279Z,16.53
2023-10-22T18:58:12.296Z,18.45
2023-10-22T19:01:23.856Z,19.30
2023-10-22T19:04:28.128Z,18.01
2023-10-22T19:07:32.490Z,16.51
2023-10-22T19:10:37.419Z,16.23
2023-10-22T19:13:41.564Z,18.03
2023-10-22T19:16:45.880Z,19.18
2023-10-22T19:19:50.441Z,19.44
2023-10-22T19:22:54.901Z,18.01
2023-10-22T19:26:00.231Z,16.60
2023-10-22T19:29:04.198Z,16.64
2023-10-22T19:32:08.447Z,18.56
2023-10-22T19:35:14.629Z,19.60
2023-10-22T19:38:18.537Z,18.74
2023-10-22T19:41:22.684Z,17.18
2023-10-22T19:44:27.145Z,16.83
2023-10-22T19:47:31.094Z,18.66
2023-10-22T19:50:34.821Z,19.65
2023-10-22T19:53:38.785Z,18.71
2023-10-22T19:56:42.400Z,17.18
2023-10-22T19:59:46.116Z,16.85
2023-10-22T20:02:49.771Z,18.60
2023-10-22T20:05:53.780Z,19.57
2023-10-22T20:08:57.311Z,18.54
2023-10-22T20:12:03.436Z,17.07
2023-10-22T20:15:09.388Z,16.79
2023-10-22T20:18:13.003Z,18.63
2023-10-22T20:21:17.999Z,19.44
2023-10-22T20:24:21.529Z,18.18
2023-10-22T20:27:25.577Z,16.79
2023-10-22T20:30:29.144Z,16.54
2023-10-22T20:33:33.034Z,18.37
2023-10-22T20:36:37.892Z,19.44
2023-10-22T20:39:42.329Z,18.79
2023-10-22T20:42:46.189Z,17.25
2023-10-22T20:45:49.799Z,16.82
2023-10-22T20:48:53.296Z,18.57
2023-10-22T20:51:56.912Z,19.38
2023-10-22T20:55:00.441Z,18.16
2023-10-22T20:58:04.100Z,16.75
2023-10-22T21:01:15.504Z,16.61
2023-10-22T21:04:20.003Z,18.61
2023-10-22T21:07:23.568Z,19.37
2023-10-22T21:10:27.065Z,18.07
2023-10-22T21:13:30.537Z,16.66
2023-10-22T21:16:34.118Z,16.42
2023-10-22T21:19:38.449Z,18.33
2023-10-22T21:22:41.972Z,19.20
2023-10-22T21:25:45.410Z,17.99
2023-10-22T21:28:49.138Z,16.53
2023-10-22T21:31:52.829Z,16.22
2023-10-22T21:34:56.296Z,18.10
2023-10-22T21:37:59.752Z,18.57
2023-10-22T21:41:03.934Z,17.14
2023-10-22T21:44:09.384Z,15.77
2023-10-22T21:47:12.955Z,15.62
2023-10-22T21:50:16.635Z,17.54
2023-10-22T21:53:20.103Z,18.59
2023-10-22T21:56:23.521Z,17.77
2023-10-22T21:59:26.988Z,16.28
2023-10-22T22:02:30.483Z,15.83
2023-10-22T22:05:33.994Z,17.54
2023-10-22T22:08:37.423Z,18.51
2023-10-22T22:11:40.856Z,17.61
2023-10-22T22:14:44.335Z,16.06
2023-10-22T22:17:48.676Z,15.61
2023-10-22T22:20:52.270Z,17.27
2023-10-22T22:23:55.759Z,18.38
2023-10-22T22:26:59.346Z,18.64
2023-10-22T22:30:03.453Z,17.26
2023-10-22T22:33:07.274Z,15.84
2023-10-22T22:36:11.589Z,15.79
2023-10-22T22:39:15.100Z,17.50
2023-10-22T22:42:18.585Z,18.59
2023-10-22T22:45:22.155Z,18.36
2023-10-22T22:48:25.822Z,16.83
2023-10-22T22:51:29.491Z,15.54
2023-10-22T22:54:33.057Z,15.34
2023-10-22T22:57:36.576Z,17.10
2023-10-22T23:00:40.168Z,18.21
2023-10-22T23:03:43.659Z,18.81
2023-10-22T23:06:47.190Z,18.94
2023-10-22T23:09:51.158Z,17.56
2023-10-22T23:12:54.680Z,16.15
2023-10-22T23:15:58.269Z,15.80
2023-10-22T23:19:01.796Z,17.43
2023-10-22T23:22:05.290Z,18.54
2023-10-22T23:25:09.961Z,18.99
2023-10-22T23:28:13.493Z,17.75
2023-10-22T23:31:17.071Z,16.31
2023-10-22T23:34:20.570Z,15.92
2023-10-22T23:37:24.044Z,17.64
2023-10-22T23:40:27.444Z,18.86
2023-10-22T23:43:31.010Z,18.44
2023-10-22T23:46:34.506Z,16.95
2023-10-22T23:49:37.966Z,16.45
2023-10-22T23:52:41.458Z,17.93
2023-10-22T23:55:46.617Z,18.80
2023-10-22T23:58:51.923Z,17.89
